British Ruby — 2AKI2 — position and weather

sailwx.info

Track history (hours):
 
Tides and Currents Weather Stations Pressure Air Temp Water Temp Dewpoint Dewpoint Depression Visibility Wind Speed Wind Dir Waves Ship Positions

British Ruby

Last reported at 2014-Sep-01 06:33 UTC. Time now 2014-Sep-01 13:44 UTC.
Position N 44°48' W 006°30'.

Length 288 m; draft 9.3 m.

Type: Ship (hazmat cat C). MMSI: 235060453.

Date/timePositionNaut miles runAvg speedWind from/ knotsBaromVisibWave heightAir tempDewpointWater temp
2014-Sep-01 06:33N 44°48' W 006°30'1425.7
2014-Sep-01 06:00N 44°42' W 006°12'612.8 080 / 171021.110.8 0.518.515.120.1
2014-Sep-01 05:33N 44°45' W 006°06'3517.5
2014-Sep-01 03:33N 44°40' W 005°17'4017.5
2014-Sep-01 01:14N 44°33' W 004°21'1217.5
2014-Sep-01 00:33N 44°31' W 004°04'1513.8
2014-Aug-31 23:27N 44°45' W 004°15'19514.6
2014-Aug-31 10:05N 47°36' W 006°31'2918.5
2014-Aug-31 08:30N 48°04' W 006°17'12516.6
2014-Aug-31 01:00N 49°30' W 004°00'17216.5 320 / 201020.910.8 15.411.317.2
2014-Aug-30 14:34N 50°34' E 000°09'1816.0
2014-Aug-30 13:28N 50°37' E 000°36'1415.4
2014-Aug-30 12:33N 50°45' E 000°55'1715.6
2014-Aug-30 11:27N 50°56' E 001°15'1617.3
2014-Aug-30 10:33N 51°06' E 001°34'1919.0
2014-Aug-30 09:33N 51°21' E 001°52'1817.7
2014-Aug-30 08:33N 51°36' E 002°09'6214.6
2014-Aug-30 04:19N 52°04' E 003°38'4 4.9
2014-Aug-30 03:33N 52°02' E 003°43'8 8.3
2014-Aug-30 02:33N 52°01' E 003°56'6 5.8
2014-Aug-30 01:33N 51°58' E 004°05'0 0.0
2014-Aug-30 00:26N 51°58' E 004°05'0 0.0
2014-Aug-29 23:29N 51°58' E 004°05'0 0.0
2014-Aug-29 22:29N 51°58' E 004°05'0 0.0
2014-Aug-29 21:32N 51°58' E 004°05'0 0.0
2014-Aug-29 20:32N 51°58' E 004°05'0 0.0
2014-Aug-29 18:26N 51°58' E 004°05'0 0.0
2014-Aug-29 17:30N 51°58' E 004°05'0 0.0
2014-Aug-29 15:32N 51°58' E 004°05'0 0.0
2014-Aug-29 14:32N 51°58' E 004°05'0 0.0
2014-Aug-29 13:26N 51°58' E 004°05'0 0.0
2014-Aug-29 12:26N 51°58' E 004°05'0 0.0
2014-Aug-29 10:26N 51°58' E 004°05'0 0.0
2014-Aug-29 09:05N 51°58' E 004°05'0 0.0
2014-Aug-29 08:23N 51°58' E 004°05'0 0.0
2014-Aug-29 06:17N 51°58' E 004°05'0 0.0
2014-Aug-29 05:26N 51°58' E 004°05'0 0.0
2014-Aug-29 04:05N 51°58' E 004°05'0 0.0
2014-Aug-29 03:29N 51°58' E 004°05'0 0.0
2014-Aug-29 02:26N 51°58' E 004°05'0 0.0
2014-Aug-29 00:29N 51°58' E 004°05'0 0.0
2014-Aug-28 23:32N 51°58' E 004°05'0 0.0
2014-Aug-28 22:18N 51°58' E 004°05'1 0.8
2014-Aug-28 21:33N 51°58' E 004°05'5 5.5
2014-Aug-28 20:33N 52°01' E 003°58'1010.1
2014-Aug-28 19:33N 52°01' E 003°41'5 5.2
2014-Aug-28 18:33N 52°01' E 003°33'0 0.4
2014-Aug-28 17:27N 52°01' E 003°32'0 0.0
2014-Aug-28 07:33N 52°01' E 003°32'0 0.0
2014-Aug-28 06:21N 52°01' E 003°32'0 0.1
2014-Aug-28 05:33N 52°01' E 003°32'1 1.4
2014-Aug-28 04:32N 52°01' E 003°30'1010.1
2014-Aug-28 03:33N 51°55' E 003°17'1716.7
2014-Aug-28 02:33N 51°49' E 002°52'2018.7
2014-Aug-28 01:30N 51°38' E 002°25'1819.0
2014-Aug-28 00:33N 51°24' E 002°08'1717.2
2014-Aug-27 23:33N 51°10' E 001°52'1818.4
2014-Aug-27 22:33N 50°58' E 001°29'1817.7
2014-Aug-27 21:33N 50°41' E 001°22'1717.5
2014-Aug-27 20:33N 50°30' E 001°01'2417.5
2014-Aug-27 19:12N 50°23' E 000°25'40816.2
2014-Aug-26 18:00N 47°42' W 009°06'10517.5 270 / 141011.2 5.4 1.017.215.518.3
2014-Aug-26 12:00N 46°36' W 011°06'29416.4 280 / 131011.210.8 1.018.512.618.5
2014-Aug-25 18:00N 43°36' W 016°36'31118.3 270 / 151013.6 2.2 1.018.618.020.3
2014-Aug-25 01:00N 40°24' W 022°06'12018.6 260 / 191021.210.8 23.122.423.5
2014-Aug-24 18:32N 39°14' W 024°13'916.0
2014-Aug-24 18:00N 39°06' W 024°18'1226.6 250 / 141022.210.8 0.524.623.024.2
2014-Aug-24 17:33N 39°02' W 024°32'1919.0
2014-Aug-24 16:33N 38°50' W 024°51'1919.1
2014-Aug-24 15:33N 38°38' W 025°11'2019.7
2014-Aug-24 14:33N 38°26' W 025°30'2019.8
2014-Aug-24 13:33N 38°14' W 025°50'2019.8
2014-Aug-24 12:33N 38°02' W 026°10'2019.9
2014-Aug-24 11:33N 37°50' W 026°30'1919.3
2014-Aug-24 10:33N 37°38' W 026°49'1919.5
2014-Aug-24 09:33N 37°26' W 027°09'2019.8
2014-Aug-24 08:33N 37°14' W 027°28'2019.5
2014-Aug-24 07:33N 37°02' W 027°47'2019.6
2014-Aug-24 06:34N 36°50' W 028°07'2019.8
2014-Aug-24 05:33N 36°37' W 028°26'1919.3
2014-Aug-24 04:33N 36°25' W 028°45'2019.6
2014-Aug-24 03:33N 36°13' W 029°04'2220.0
2014-Aug-24 02:27N 35°60' W 029°26'1431.1
2014-Aug-24 02:00N 35°48' W 029°36'613.5 250 / 101023.410.8 25.123.126.4
2014-Aug-24 01:33N 35°49' W 029°43'2120.0
2014-Aug-24 00:32N 35°36' W 030°03'1919.9
2014-Aug-23 23:33N 35°24' W 030°22'2119.8
2014-Aug-23 22:31N 35°12' W 030°42'  
Track history (hours):
 
Tides and Currents Weather Stations Pressure Air Temp Water Temp Dewpoint Dewpoint Depression Visibility Wind Speed Wind Dir Waves Ship Positions

British Ruby

Last reported at 2014-Sep-01 06:33 UTC. Time now 2014-Sep-01 13:44 UTC.
Position N 44°48' W 006°30'.

Length 288 m; draft 9.3 m.

Type: Ship (hazmat cat C). MMSI: 235060453.

Date/timePositionNaut miles runAvg speedWind from/ knotsBaromVisibWave heightAir tempDewpointWater temp
2014-Sep-01 06:33N 44°48' W 006°30'1425.7
2014-Sep-01 06:00N 44°42' W 006°12'612.8 080 / 171021.110.8 0.518.515.120.1
2014-Sep-01 05:33N 44°45' W 006°06'3517.5
2014-Sep-01 03:33N 44°40' W 005°17'4017.5
2014-Sep-01 01:14N 44°33' W 004°21'1217.5
2014-Sep-01 00:33N 44°31' W 004°04'1513.8
2014-Aug-31 23:27N 44°45' W 004°15'19514.6
2014-Aug-31 10:05N 47°36' W 006°31'2918.5
2014-Aug-31 08:30N 48°04' W 006°17'12516.6
2014-Aug-31 01:00N 49°30' W 004°00'17216.5 320 / 201020.910.8 15.411.317.2
2014-Aug-30 14:34N 50°34' E 000°09'1816.0
2014-Aug-30 13:28N 50°37' E 000°36'1415.4
2014-Aug-30 12:33N 50°45' E 000°55'1715.6
2014-Aug-30 11:27N 50°56' E 001°15'1617.3
2014-Aug-30 10:33N 51°06' E 001°34'1919.0
2014-Aug-30 09:33N 51°21' E 001°52'1817.7
2014-Aug-30 08:33N 51°36' E 002°09'6214.6
2014-Aug-30 04:19N 52°04' E 003°38'4 4.9
2014-Aug-30 03:33N 52°02' E 003°43'8 8.3
2014-Aug-30 02:33N 52°01' E 003°56'6 5.8
2014-Aug-30 01:33N 51°58' E 004°05'0 0.0
2014-Aug-30 00:26N 51°58' E 004°05'0 0.0
2014-Aug-29 23:29N 51°58' E 004°05'0 0.0
2014-Aug-29 22:29N 51°58' E 004°05'0 0.0
2014-Aug-29 21:32N 51°58' E 004°05'0 0.0
2014-Aug-29 20:32N 51°58' E 004°05'0 0.0
2014-Aug-29 18:26N 51°58' E 004°05'0 0.0
2014-Aug-29 17:30N 51°58' E 004°05'0 0.0
2014-Aug-29 15:32N 51°58' E 004°05'0 0.0
2014-Aug-29 14:32N 51°58' E 004°05'0 0.0
2014-Aug-29 13:26N 51°58' E 004°05'0 0.0
2014-Aug-29 12:26N 51°58' E 004°05'0 0.0
2014-Aug-29 10:26N 51°58' E 004°05'0 0.0
2014-Aug-29 09:05N 51°58' E 004°05'0 0.0
2014-Aug-29 08:23N 51°58' E 004°05'0 0.0
2014-Aug-29 06:17N 51°58' E 004°05'0 0.0
2014-Aug-29 05:26N 51°58' E 004°05'0 0.0
2014-Aug-29 04:05N 51°58' E 004°05'0 0.0
2014-Aug-29 03:29N 51°58' E 004°05'0 0.0
2014-Aug-29 02:26N 51°58' E 004°05'0 0.0
2014-Aug-29 00:29N 51°58' E 004°05'0 0.0
2014-Aug-28 23:32N 51°58' E 004°05'0 0.0
2014-Aug-28 22:18N 51°58' E 004°05'1 0.8
2014-Aug-28 21:33N 51°58' E 004°05'5 5.5
2014-Aug-28 20:33N 52°01' E 003°58'1010.1
2014-Aug-28 19:33N 52°01' E 003°41'5 5.2
2014-Aug-28 18:33N 52°01' E 003°33'0 0.4
2014-Aug-28 17:27N 52°01' E 003°32'0 0.0
2014-Aug-28 07:33N 52°01' E 003°32'0 0.0
2014-Aug-28 06:21N 52°01' E 003°32'0 0.1
2014-Aug-28 05:33N 52°01' E 003°32'1 1.4
2014-Aug-28 04:32N 52°01' E 003°30'1010.1
2014-Aug-28 03:33N 51°55' E 003°17'1716.7
2014-Aug-28 02:33N 51°49' E 002°52'2018.7
2014-Aug-28 01:30N 51°38' E 002°25'1819.0
2014-Aug-28 00:33N 51°24' E 002°08'1717.2
2014-Aug-27 23:33N 51°10' E 001°52'1818.4
2014-Aug-27 22:33N 50°58' E 001°29'1817.7
2014-Aug-27 21:33N 50°41' E 001°22'1717.5
2014-Aug-27 20:33N 50°30' E 001°01'2417.5
2014-Aug-27 19:12N 50°23' E 000°25'40816.2
2014-Aug-26 18:00N 47°42' W 009°06'10517.5 270 / 141011.2 5.4 1.017.215.518.3
2014-Aug-26 12:00N 46°36' W 011°06'29416.4 280 / 131011.210.8 1.018.512.618.5
2014-Aug-25 18:00N 43°36' W 016°36'31118.3 270 / 151013.6 2.2 1.018.618.020.3
2014-Aug-25 01:00N 40°24' W 022°06'12018.6 260 / 191021.210.8 23.122.423.5
2014-Aug-24 18:32N 39°14' W 024°13'916.0
2014-Aug-24 18:00N 39°06' W 024°18'1226.6 250 / 141022.210.8 0.524.623.024.2
2014-Aug-24 17:33N 39°02' W 024°32'1919.0
2014-Aug-24 16:33N 38°50' W 024°51'1919.1
2014-Aug-24 15:33N 38°38' W 025°11'2019.7
2014-Aug-24 14:33N 38°26' W 025°30'2019.8
2014-Aug-24 13:33N 38°14' W 025°50'2019.8
2014-Aug-24 12:33N 38°02' W 026°10'2019.9
2014-Aug-24 11:33N 37°50' W 026°30'1919.3
2014-Aug-24 10:33N 37°38' W 026°49'1919.5
2014-Aug-24 09:33N 37°26' W 027°09'2019.8
2014-Aug-24 08:33N 37°14' W 027°28'2019.5
2014-Aug-24 07:33N 37°02' W 027°47'2019.6
2014-Aug-24 06:34N 36°50' W 028°07'2019.8
2014-Aug-24 05:33N 36°37' W 028°26'1919.3
2014-Aug-24 04:33N 36°25' W 028°45'2019.6
2014-Aug-24 03:33N 36°13' W 029°04'2220.0
2014-Aug-24 02:27N 35°60' W 029°26'1431.1
2014-Aug-24 02:00N 35°48' W 029°36'613.5 250 / 101023.410.8 25.123.126.4
2014-Aug-24 01:33N 35°49' W 029°43'2120.0
2014-Aug-24 00:32N 35°36' W 030°03'1919.9
2014-Aug-23 23:33N 35°24' W 030°22'2119.8
2014-Aug-23 22:31N 35°12' W 030°42'  

Dump ship's entire track history